Time;durP1;ratioP1;P1;durP2;ratioP2;P2;SDS_P1;SDS_P2;PMS_P1;PMS_P2;Temp;Humidity;BMP_temperature;BMP_pressure;BME280_temperature;BME280_humidity;BME280_pressure;Samples;Min_cycle;Max_cycle;Signal;HPM_P1;HPM_P2
2023/01/10 00:01:20;;;;;;;22.17;14.60;;;9.10;99.90;;;;;;5111423;28;20544;-82
2023/01/10 00:03:46;;;;;;;20.27;14.13;;;9.20;99.90;;;;;;5095581;28;20196;-83
2023/01/10 00:06:12;;;;;;;23.80;15.63;;;9.20;99.90;;;;;;5111712;28;20172;-82
2023/01/10 00:08:38;;;;;;;21.67;15.10;;;9.20;99.90;;;;;;5095621;28;20201;-83
2023/01/10 00:13:22;;;;;;;20.00;14.73;;;9.10;99.90;;;;;;5095530;28;20164;-82
2023/01/10 00:13:54;;;;;;;25.52;16.17;;;9.20;99.90;;;;;;5095824;28;20653;-83
2023/01/10 00:16:21;;;;;;;25.67;14.80;;;9.20;99.90;;;;;;5111160;28;20219;-81
2023/01/10 00:18:47;;;;;;;22.48;15.38;;;9.20;99.90;;;;;;5095374;28;20745;-83
2023/01/10 00:21:15;;;;;;;24.17;16.17;;;9.20;99.90;;;;;;5095268;28;20173;-81
2023/01/10 00:23:43;;;;;;;22.95;16.30;;;9.20;99.90;;;;;;5095236;28;20215;-81
2023/01/10 00:26:09;;;;;;;21.98;14.48;;;9.20;99.90;;;;;;5093985;28;20543;-83
2023/01/10 00:28:35;;;;;;;25.95;16.48;;;9.20;99.90;;;;;;5095107;28;20239;-81
2023/01/10 00:31:05;;;;;;;25.80;15.27;;;9.20;99.90;;;;;;5095154;28;20168;-81
2023/01/10 00:33:32;;;;;;;22.83;14.88;;;9.20;99.90;;;;;;5093718;28;20237;-81
2023/01/10 00:36:03;;;;;;;23.77;15.25;;;9.30;99.90;;;;;;5093829;28;20220;-83
2023/01/10 00:38:35;;;;;;;22.20;15.25;;;9.20;99.90;;;;;;5094902;28;20188;-83
2023/01/10 00:41:01;;;;;;;23.98;16.05;;;9.30;99.90;;;;;;5095027;28;20168;-83
2023/01/10 00:46:11;;;;;;;23.42;15.02;;;9.20;99.90;;;;;;5094871;28;20163;-83
2023/01/10 00:48:37;;;;;;;26.05;15.52;;;9.20;99.90;;;;;;5094801;28;20207;-81
2023/01/10 00:51:04;;;;;;;21.63;16.33;;;9.20;99.90;;;;;;5094783;28;20176;-83
2023/01/10 00:53:30;;;;;;;25.08;15.70;;;9.20;99.90;;;;;;5094559;28;20211;-81
2023/01/10 00:55:56;;;;;;;24.97;16.23;;;9.20;99.90;;;;;;5092718;28;20220;-81
2023/01/10 00:58:22;;;;;;;24.45;16.42;;;9.20;99.90;;;;;;5094735;28;20416;-81
2023/01/10 01:00:48;;;;;;;22.90;15.90;;;9.10;99.90;;;;;;5093277;28;20218;-82
2023/01/10 01:03:16;;;;;;;25.43;16.43;;;9.10;99.90;;;;;;5094510;28;20263;-81
2023/01/10 01:05:43;;;;;;;22.30;16.15;;;9.10;99.90;;;;;;5094531;28;20446;-83
2023/01/10 01:08:14;;;;;;;25.13;18.08;;;9.20;99.90;;;;;;5094324;28;20192;-81
2023/01/10 01:10:40;;;;;;;29.88;17.85;;;9.20;99.90;;;;;;5094352;28;20571;-83
2023/01/10 01:13:15;;;;;;;31.00;17.10;;;9.20;99.90;;;;;;5093049;28;20231;-81
2023/01/10 01:15:41;;;;;;;26.58;17.23;;;9.20;99.90;;;;;;5093005;28;20444;-83
2023/01/10 01:18:09;;;;;;;23.63;16.37;;;9.20;99.90;;;;;;5094322;28;20192;-85
2023/01/10 01:20:37;;;;;;;24.60;17.73;;;9.20;99.90;;;;;;5094150;28;20574;-82
2023/01/10 01:23:02;;;;;;;26.50;16.63;;;9.20;99.90;;;;;;5092904;28;20231;-85
2023/01/10 01:25:28;;;;;;;23.93;15.87;;;9.10;99.90;;;;;;5094062;28;20181;-84
2023/01/10 01:27:54;;;;;;;26.00;17.20;;;9.10;99.90;;;;;;5094150;28;20188;-85
2023/01/10 01:30:19;;;;;;;25.90;17.30;;;9.10;99.90;;;;;;5110235;28;20637;-85
2023/01/10 01:32:45;;;;;;;27.43;18.03;;;9.10;99.90;;;;;;5092798;28;20188;-83
2023/01/10 01:35:13;;;;;;;26.80;17.43;;;9.10;99.90;;;;;;5094473;28;20234;-83
2023/01/10 01:37:40;;;;;;;22.20;16.35;;;9.10;99.90;;;;;;5092658;28;20192;-83
2023/01/10 01:40:07;;;;;;;26.48;16.67;;;9.10;99.90;;;;;;5092538;28;20716;-85
2023/01/10 01:42:35;;;;;;;27.33;16.73;;;9.10;99.90;;;;;;5093859;28;20657;-83
2023/01/10 01:45:31;;;;;;;25.02;15.68;;;9.10;99.90;;;;;;5093961;28;20184;-83
2023/01/10 01:48:13;;;;;;;24.48;16.33;;;9.20;99.90;;;;;;5088717;28;20221;-81
2023/01/10 01:50:52;;;;;;;22.85;16.30;;;9.10;99.90;;;;;;5092534;28;20181;-81
2023/01/10 01:53:42;;;;;;;28.70;17.50;;;9.20;99.90;;;;;;5109462;28;20199;-81
2023/01/10 01:56:43;;;;;;;27.95;16.52;;;9.20;99.90;;;;;;5093471;28;20232;-82
2023/01/10 01:59:11;;;;;;;25.13;16.90;;;9.10;99.90;;;;;;5075045;28;20228;-80
2023/01/10 02:01:40;;;;;;;25.77;15.88;;;9.10;99.90;;;;;;5092335;28;20183;-81
2023/01/10 02:04:14;;;;;;;30.85;16.55;;;9.10;99.90;;;;;;5093844;28;20192;-83
2023/01/10 02:06:40;;;;;;;26.73;17.02;;;9.10;99.90;;;;;;5093396;28;20263;-80
2023/01/10 02:09:41;;;;;;;23.98;16.65;;;9.10;99.90;;;;;;5098064;28;20215;-83
2023/01/10 02:12:09;;;;;;;26.88;18.20;;;9.10;99.90;;;;;;5095892;28;20599;-83
2023/01/10 02:14:36;;;;;;;25.33;17.65;;;9.10;99.90;;;;;;5096598;28;20180;-83
2023/01/10 02:17:02;;;;;;;23.08;16.60;;;9.10;99.90;;;;;;5096456;28;20217;-81
2023/01/10 02:20:02;;;;;;;29.60;18.83;;;9.10;99.90;;;;;;5096430;28;20633;-81
2023/01/10 02:22:55;;;;;;;29.73;19.52;;;9.10;99.90;;;;;;5113296;28;20238;-81
2023/01/10 02:25:33;;;;;;;29.15;20.92;;;9.00;99.90;;;;;;5113232;28;20588;-81
2023/01/10 02:28:13;;;;;;;29.73;18.65;;;9.10;99.90;;;;;;5113237;28;20560;-81
2023/01/10 02:30:59;;;;;;;29.33;20.15;;;9.00;99.90;;;;;;5097487;28;20169;-80
2023/01/10 02:33:43;;;;;;;30.30;20.13;;;9.10;99.90;;;;;;5097460;28;20184;-83
2023/01/10 02:36:33;;;;;;;31.67;18.65;;;9.00;99.90;;;;;;5097359;28;20170;-81
2023/01/10 02:39:06;;;;;;;32.30;20.05;;;9.00;99.90;;;;;;5097393;28;20216;-83
2023/01/10 02:41:40;;;;;;;28.13;20.13;;;9.00;99.90;;;;;;5097221;28;20179;-83
2023/01/10 02:44:11;;;;;;;32.25;21.00;;;9.00;99.90;;;;;;5096017;28;20250;-85
2023/01/10 02:46:39;;;;;;;33.40;21.52;;;9.00;99.90;;;;;;5097181;28;20176;-83
2023/01/10 02:49:05;;;;;;;30.17;19.90;;;9.00;99.90;;;;;;5095816;28;20204;-83
2023/01/10 02:51:34;;;;;;;34.08;20.50;;;9.00;99.90;;;;;;5096949;28;20173;-83
2023/01/10 02:54:08;;;;;;;33.47;21.13;;;9.00;99.90;;;;;;5096901;28;20210;-82
2023/01/10 02:56:58;;;;;;;34.40;22.35;;;9.00;99.90;;;;;;5097058;28;20156;-83
2023/01/10 02:59:46;;;;;;;38.50;23.48;;;9.00;99.90;;;;;;5112595;28;20285;-84
2023/01/10 03:02:32;;;;;;;31.83;20.85;;;9.00;99.90;;;;;;5112531;28;20200;-84
2023/01/10 03:05:00;;;;;;;32.78;20.80;;;9.00;99.90;;;;;;5097330;28;20176;-83
2023/01/10 03:07:52;;;;;;;30.73;20.90;;;9.00;99.90;;;;;;5096672;28;20192;-85
2023/01/10 03:10:44;;;;;;;39.17;22.65;;;9.00;99.90;;;;;;5097265;28;20202;-83
2023/01/10 03:13:23;;;;;;;33.67;21.27;;;9.00;99.90;;;;;;5096562;28;20196;-83
2023/01/10 03:15:50;;;;;;;34.38;22.05;;;9.00;99.90;;;;;;5096658;28;20156;-85
2023/01/10 03:18:23;;;;;;;36.25;23.58;;;9.00;99.90;;;;;;5094654;28;20192;-83
2023/01/10 03:20:50;;;;;;;37.33;23.52;;;9.00;99.90;;;;;;5095161;28;20216;-85
2023/01/10 03:23:17;;;;;;;38.30;23.15;;;9.00;99.90;;;;;;5095065;28;20200;-85
2023/01/10 03:25:45;;;;;;;38.15;23.77;;;9.00;99.90;;;;;;5096432;28;20183;-83
2023/01/10 03:28:22;;;;;;;34.13;23.42;;;9.00;99.90;;;;;;5094948;28;20207;-83
2023/01/10 03:30:56;;;;;;;34.13;20.15;;;9.00;99.90;;;;;;5096387;28;20297;-82
2023/01/10 03:33:26;;;;;;;31.05;19.65;;;9.00;99.90;;;;;;5094976;28;20673;-85
2023/01/10 03:36:15;;;;;;;33.88;21.08;;;8.90;99.90;;;;;;5096376;28;20173;-83
2023/01/10 03:38:51;;;;;;;31.38;18.85;;;8.90;99.90;;;;;;5096048;28;20245;-83
2023/01/10 03:41:34;;;;;;;28.70;18.77;;;8.80;99.90;;;;;;5111959;28;20637;-83
2023/01/10 03:44:42;;;;;;;25.55;18.30;;;8.70;99.90;;;;;;5111828;28;20238;-85
2023/01/10 03:47:47;;;;;;;25.63;17.00;;;8.70;99.90;;;;;;5094725;28;20279;-86
2023/01/10 03:50:27;;;;;;;34.17;18.52;;;8.70;99.90;;;;;;5096491;28;20180;-85
2023/01/10 03:52:54;;;;;;;29.67;17.50;;;8.70;99.90;;;;;;5094608;28;20192;-85
2023/01/10 03:55:24;;;;;;;26.55;17.67;;;8.60;99.90;;;;;;5095879;28;20599;-85
2023/01/10 03:57:50;;;;;;;30.08;18.13;;;8.60;99.90;;;;;;5111414;28;20196;-83
2023/01/10 04:00:16;;;;;;;26.40;18.60;;;8.60;99.90;;;;;;5111580;28;20575;-85
2023/01/10 04:02:43;;;;;;;29.92;18.60;;;8.60;99.90;;;;;;5095634;28;20279;-83
2023/01/10 04:05:09;;;;;;;25.55;17.15;;;8.60;99.90;;;;;;5095961;28;20180;-82
2023/01/10 04:07:35;;;;;;;26.75;17.98;;;8.60;99.90;;;;;;5095459;28;20237;-85
2023/01/10 04:10:02;;;;;;;27.95;18.25;;;8.60;99.90;;;;;;5111127;28;20598;-85
2023/01/10 04:12:27;;;;;;;29.80;18.88;;;8.60;99.90;;;;;;5095465;28;20207;-83
2023/01/10 04:14:53;;;;;;;25.40;16.80;;;8.70;99.90;;;;;;5095977;28;20173;-83
2023/01/10 04:17:19;;;;;;;29.83;18.07;;;8.70;99.90;;;;;;5094044;28;20200;-83
2023/01/10 04:19:45;;;;;;;29.70;18.50;;;8.70;99.90;;;;;;5095224;28;20969;-86
2023/01/10 04:22:11;;;;;;;33.40;19.67;;;8.70;99.90;;;;;;5094017;28;20591;-84
2023/01/10 04:24:37;;;;;;;32.25;20.40;;;8.70;99.90;;;;;;5095530;28;20544;-81
2023/01/10 04:27:03;;;;;;;37.15;23.27;;;8.70;99.90;;;;;;5093933;28;20187;-84
2023/01/10 04:29:30;;;;;;;45.83;24.10;;;8.80;99.90;;;;;;5094476;28;20221;-82
2023/01/10 04:31:55;;;;;;;39.60;24.40;;;8.80;99.90;;;;;;5095104;28;20169;-81
2023/01/10 04:34:21;;;;;;;48.23;26.83;;;8.90;99.90;;;;;;5095358;28;20502;-81
2023/01/10 04:36:48;;;;;;;48.78;27.40;;;8.90;99.90;;;;;;5095039;28;20272;-82
2023/01/10 04:39:14;;;;;;;40.03;24.38;;;9.00;99.90;;;;;;5095267;28;20287;-83
2023/01/10 04:41:40;;;;;;;42.72;25.63;;;8.90;99.90;;;;;;5094928;28;20248;-81
2023/01/10 04:44:06;;;;;;;39.73;24.03;;;9.00;99.90;;;;;;5095041;28;20228;-81
2023/01/10 04:46:32;;;;;;;41.22;24.15;;;9.10;99.90;;;;;;5094865;28;20221;-81
2023/01/10 04:48:58;;;;;;;31.60;20.73;;;9.00;99.90;;;;;;5099219;28;20272;-81
2023/01/10 04:51:25;;;;;;;39.70;23.17;;;9.00;99.90;;;;;;5113829;28;20199;-83
2023/01/10 04:53:51;;;;;;;33.55;20.25;;;9.00;99.90;;;;;;5115110;28;20589;-83
2023/01/10 04:56:20;;;;;;;28.38;18.15;;;9.00;99.90;;;;;;5114792;28;20729;-84
2023/01/10 04:58:47;;;;;;;32.90;20.13;;;9.00;99.90;;;;;;5114783;28;20196;-84
2023/01/10 05:01:19;;;;;;;33.83;20.45;;;9.10;99.90;;;;;;5114988;28;20636;-81
2023/01/10 05:03:47;;;;;;;33.30;18.60;;;9.10;99.90;;;;;;5113686;28;20208;-81
2023/01/10 05:06:13;;;;;;;33.05;19.63;;;9.10;99.90;;;;;;5115254;28;20214;-81
2023/01/10 05:08:39;;;;;;;34.10;20.23;;;9.10;99.90;;;;;;5113450;28;20203;-83
2023/01/10 05:11:05;;;;;;;34.10;20.17;;;9.10;99.90;;;;;;5113616;28;20546;-81
2023/01/10 05:13:31;;;;;;;35.22;21.63;;;9.10;99.90;;;;;;5113293;28;20199;-83
2023/01/10 05:15:57;;;;;;;36.23;19.33;;;9.10;99.90;;;;;;5113171;28;20180;-80
2023/01/10 05:18:24;;;;;;;33.30;22.65;;;9.10;99.90;;;;;;5111435;28;20203;-81
2023/01/10 05:20:50;;;;;;;35.63;24.50;;;9.10;99.90;;;;;;5112390;28;20555;-81
2023/01/10 05:23:16;;;;;;;39.22;25.13;;;9.10;99.90;;;;;;5114438;28;20214;-81
2023/01/10 05:25:42;;;;;;;41.70;22.58;;;9.10;99.90;;;;;;5113075;28;20168;-82
2023/01/10 05:28:08;;;;;;;33.73;21.33;;;9.00;99.90;;;;;;5112843;28;20245;-82
2023/01/10 05:30:34;;;;;;;31.23;19.03;;;9.00;99.90;;;;;;5111393;28;20546;-81
2023/01/10 05:32:59;;;;;;;38.57;21.50;;;9.00;99.90;;;;;;5109730;28;20420;-83
2023/01/10 05:35:25;;;;;;;32.37;20.13;;;9.00;99.90;;;;;;5109264;28;20184;-81
2023/01/10 05:37:52;;;;;;;37.33;24.50;;;9.00;99.90;;;;;;5109043;28;20294;-82
2023/01/10 05:40:18;;;;;;;27.77;18.52;;;8.90;99.90;;;;;;5108726;28;20215;-81
2023/01/10 05:42:44;;;;;;;31.03;20.87;;;9.00;99.90;;;;;;5110374;28;20879;-81
2023/01/10 05:45:10;;;;;;;33.73;19.60;;;9.10;99.90;;;;;;5109187;28;20180;-80
2023/01/10 05:47:36;;;;;;;35.13;20.42;;;9.10;99.90;;;;;;5111898;28;20668;-81
2023/01/10 05:50:01;;;;;;;36.50;22.90;;;9.20;99.90;;;;;;5113329;28;20168;-83
2023/01/10 05:52:27;;;;;;;29.27;19.90;;;9.10;99.90;;;;;;5110463;28;20188;-83
2023/01/10 05:54:53;;;;;;;37.60;24.97;;;9.10;99.90;;;;;;5112001;28;20261;-81
2023/01/10 05:57:20;;;;;;;31.20;20.57;;;9.10;99.90;;;;;;5111497;28;20188;-81
2023/01/10 05:59:46;;;;;;;37.95;23.38;;;9.20;99.90;;;;;;5110531;28;20471;-83
2023/01/10 06:02:12;;;;;;;33.50;21.00;;;9.30;99.90;;;;;;5112045;28;20210;-83
2023/01/10 06:04:38;;;;;;;35.63;20.80;;;9.30;99.90;;;;;;5113922;28;20176;-81
2023/01/10 06:07:03;;;;;;;35.33;21.60;;;9.30;99.90;;;;;;5112838;28;20171;-81
2023/01/10 06:09:29;;;;;;;32.07;20.37;;;9.30;99.90;;;;;;5112824;28;20947;-80
2023/01/10 06:11:55;;;;;;;32.20;20.50;;;9.20;99.90;;;;;;5113828;28;20194;-81
2023/01/10 06:14:21;;;;;;;34.43;21.40;;;9.20;99.90;;;;;;5113530;28;20262;-83
2023/01/10 06:16:46;;;;;;;48.50;30.70;;;9.00;99.90;;;;;;5112785;28;20408;-81
2023/01/10 06:19:12;;;;;;;50.23;33.27;;;9.00;99.90;;;;;;5112544;28;20215;-82
2023/01/10 06:21:39;;;;;;;48.73;28.73;;;9.00;99.90;;;;;;5113628;28;20461;-81
2023/01/10 06:24:05;;;;;;;44.30;28.63;;;9.00;99.90;;;;;;5112536;28;20769;-83
2023/01/10 06:26:31;;;;;;;41.50;27.10;;;9.00;99.90;;;;;;5101430;28;20180;-80
2023/01/10 06:28:58;;;;;;;37.97;22.43;;;9.10;99.90;;;;;;5097495;28;20261;-83
2023/01/10 06:31:25;;;;;;;38.17;22.50;;;9.10;99.90;;;;;;5093132;28;20741;-83
2023/01/10 06:33:50;;;;;;;40.28;23.27;;;9.10;99.90;;;;;;5099399;28;20632;-80
2023/01/10 06:36:16;;;;;;;269.23;144.63;;;9.10;99.90;;;;;;5099640;28;20301;-83
2023/01/10 06:38:42;;;;;;;116.80;67.20;;;9.00;99.90;;;;;;5106238;28;20481;-80
2023/01/10 06:41:17;;;;;;;49.30;33.10;;;9.00;99.90;;;;;;5101284;28;20188;-82
2023/01/10 06:43:44;;;;;;;200.23;111.22;;;8.90;99.90;;;;;;5099301;28;20222;-83
2023/01/10 06:46:15;;;;;;;45.50;28.85;;;8.90;99.90;;;;;;5100335;28;20169;-83
2023/01/10 06:48:45;;;;;;;43.22;26.92;;;8.70;99.90;;;;;;5086200;28;20212;-80
2023/01/10 06:51:12;;;;;;;78.32;51.38;;;8.60;99.90;;;;;;5089610;28;20172;-83
2023/01/10 06:53:38;;;;;;;53.60;38.22;;;8.50;99.90;;;;;;5098132;28;20291;-81
2023/01/10 06:56:04;;;;;;;50.50;32.60;;;8.50;99.90;;;;;;5100006;28;20664;-83
2023/01/10 06:58:31;;;;;;;46.72;29.52;;;8.60;99.90;;;;;;5101724;28;20208;-80
2023/01/10 07:00:57;;;;;;;43.28;26.85;;;8.60;99.90;;;;;;5094995;28;20212;-81
2023/01/10 07:03:23;;;;;;;42.15;24.98;;;8.60;99.90;;;;;;5095924;28;20200;-80
2023/01/10 07:05:48;;;;;;;40.00;25.85;;;8.50;99.90;;;;;;5107531;28;20183;-82
2023/01/10 07:08:15;;;;;;;48.50;28.37;;;8.50;99.90;;;;;;5101073;28;20208;-83
2023/01/10 07:10:41;;;;;;;53.38;30.88;;;8.50;99.90;;;;;;5107082;28;20195;-82
2023/01/10 07:13:07;;;;;;;52.00;33.72;;;8.50;99.90;;;;;;5103583;28;20200;-83
2023/01/10 07:15:33;;;;;;;45.58;29.13;;;8.50;99.90;;;;;;5102937;28;20204;-83
2023/01/10 07:17:59;;;;;;;49.70;25.73;;;8.50;99.90;;;;;;5098476;28;20224;-80
2023/01/10 07:20:26;;;;;;;43.53;25.00;;;8.50;99.90;;;;;;5106041;28;20211;-83
2023/01/10 07:22:59;;;;;;;44.42;26.40;;;8.50;99.90;;;;;;5109447;28;20449;-83
2023/01/10 07:25:27;;;;;;;57.92;32.85;;;8.60;99.90;;;;;;5106810;28;20273;-84
2023/01/10 07:27:56;;;;;;;286.90;123.82;;;8.50;99.90;;;;;;5105915;28;20202;-84
2023/01/10 07:30:23;;;;;;;310.48;141.95;;;8.50;99.90;;;;;;5096344;28;20188;-84
2023/01/10 07:32:56;;;;;;;130.93;66.45;;;8.50;99.90;;;;;;5106555;28;20202;-84
2023/01/10 07:35:23;;;;;;;89.05;48.83;;;8.50;99.90;;;;;;5101104;28;20194;-84
2023/01/10 07:37:48;;;;;;;108.30;62.38;;;8.60;99.90;;;;;;5108306;28;20199;-84
2023/01/10 07:40:14;;;;;;;69.77;40.00;;;8.50;99.90;;;;;;5099283;28;20212;-81
2023/01/10 07:42:40;;;;;;;64.50;33.80;;;8.50;99.90;;;;;;5100249;28;20192;-81
2023/01/10 07:45:07;;;;;;;84.00;45.23;;;8.50;99.90;;;;;;5099869;28;20399;-84
2023/01/10 07:47:33;;;;;;;285.50;131.98;;;8.50;99.90;;;;;;5092326;28;20661;-80
2023/01/10 07:49:59;;;;;;;193.65;93.43;;;8.50;99.90;;;;;;5083225;27;20203;-84
2023/01/10 07:52:25;;;;;;;51.57;29.90;;;8.40;99.90;;;;;;5081180;28;20632;-84
2023/01/10 07:54:52;;;;;;;48.10;28.83;;;8.40;99.90;;;;;;5079164;28;20931;-81
2023/01/10 07:57:17;;;;;;;48.08;26.73;;;8.30;99.90;;;;;;5080940;28;20204;-84
2023/01/10 07:59:44;;;;;;;47.47;27.07;;;8.30;99.90;;;;;;5078238;28;20285;-84
2023/01/10 08:02:10;;;;;;;44.20;27.38;;;8.40;99.90;;;;;;5089097;28;20784;-84
2023/01/10 08:04:37;;;;;;;40.17;25.10;;;8.50;99.90;;;;;;5082950;28;20180;-80
2023/01/10 08:07:03;;;;;;;85.82;52.08;;;8.40;99.90;;;;;;5104988;28;20172;-80
2023/01/10 08:09:29;;;;;;;44.85;25.13;;;8.40;99.90;;;;;;5107088;28;20179;-84
2023/01/10 08:11:54;;;;;;;47.03;26.70;;;8.50;99.90;;;;;;5106430;28;20618;-83
2023/01/10 08:14:20;;;;;;;46.83;26.67;;;8.50;99.90;;;;;;5102225;28;20710;-81
2023/01/10 08:16:45;;;;;;;40.00;26.40;;;8.50;99.90;;;;;;5098717;28;20220;-84
2023/01/10 08:19:15;;;;;;;38.00;23.53;;;8.60;99.90;;;;;;5104307;28;20352;-81
2023/01/10 08:21:41;;;;;;;44.25;26.05;;;8.50;99.90;;;;;;5103676;28;20178;-84
2023/01/10 08:24:10;;;;;;;44.08;27.15;;;8.50;99.90;;;;;;5099452;28;20429;-85
2023/01/10 08:26:36;;;;;;;47.33;29.13;;;8.60;99.90;;;;;;5102635;28;20513;-84
2023/01/10 08:29:01;;;;;;;44.07;26.30;;;8.70;99.90;;;;;;5107532;28;20215;-81
2023/01/10 08:31:27;;;;;;;124.90;66.07;;;8.70;99.90;;;;;;5106133;28;20705;-81
2023/01/10 08:33:53;;;;;;;170.47;87.73;;;8.60;99.90;;;;;;5104439;28;20197;-84
2023/01/10 08:36:21;;;;;;;127.50;63.37;;;8.60;99.90;;;;;;5091640;28;20259;-81
2023/01/10 08:38:49;;;;;;;148.07;81.00;;;8.60;99.90;;;;;;5105935;28;20613;-84
2023/01/10 08:41:15;;;;;;;51.85;31.58;;;8.60;99.90;;;;;;5104874;28;20177;-81
2023/01/10 08:43:41;;;;;;;36.87;23.07;;;8.60;99.90;;;;;;5106208;28;20670;-81
2023/01/10 08:46:07;;;;;;;42.37;24.03;;;8.60;99.90;;;;;;5106065;28;20179;-86
2023/01/10 08:48:32;;;;;;;35.88;21.27;;;8.50;99.90;;;;;;5106186;28;20208;-86
2023/01/10 08:51:03;;;;;;;35.17;20.80;;;8.50;99.90;;;;;;5102338;28;20179;-86
2023/01/10 08:53:30;;;;;;;41.90;24.15;;;8.50;99.90;;;;;;5104965;28;20211;-84
2023/01/10 08:55:56;;;;;;;43.80;23.85;;;8.50;99.90;;;;;;5104216;28;20207;-84
2023/01/10 08:58:22;;;;;;;38.50;24.43;;;8.70;99.90;;;;;;5095367;28;20564;-88
2023/01/10 09:00:48;;;;;;;43.13;24.30;;;8.90;99.90;;;;;;5104777;28;20447;-84
2023/01/10 09:03:14;;;;;;;30.90;18.70;;;9.00;99.90;;;;;;5100546;28;20525;-88
2023/01/10 09:05:41;;;;;;;38.72;22.63;;;8.90;99.90;;;;;;5088212;28;20449;-89
2023/01/10 09:08:06;;;;;;;35.73;20.90;;;8.80;99.90;;;;;;5098547;28;20268;-85
2023/01/10 09:10:32;;;;;;;34.03;22.33;;;8.70;99.90;;;;;;5098444;28;20207;-84
2023/01/10 09:13:00;;;;;;;37.83;22.40;;;8.70;99.90;;;;;;5101046;28;20302;-90
2023/01/10 09:15:30;;;;;;;38.45;22.77;;;8.70;99.90;;;;;;5101919;28;20536;-89
2023/01/10 09:17:59;;;;;;;29.73;19.55;;;8.80;99.90;;;;;;5099545;28;20196;-83
2023/01/10 09:20:26;;;;;;;33.08;20.77;;;8.80;99.90;;;;;;5102224;28;20208;-85
2023/01/10 09:22:53;;;;;;;31.80;20.05;;;8.70;99.90;;;;;;5095455;28;20600;-88
2023/01/10 09:25:19;;;;;;;34.45;20.35;;;8.80;99.90;;;;;;5103270;28;20179;-87
2023/01/10 09:27:45;;;;;;;24.48;16.80;;;8.80;99.90;;;;;;5097454;28;20225;-85
2023/01/10 09:30:12;;;;;;;30.50;19.27;;;8.70;99.90;;;;;;5096624;28;20191;-85
2023/01/10 09:32:37;;;;;;;23.55;16.98;;;8.80;99.90;;;;;;5101649;27;20219;-89
2023/01/10 09:35:03;;;;;;;25.00;16.43;;;8.70;99.90;;;;;;5108087;28;21045;-87
2023/01/10 09:37:32;;;;;;;25.20;16.05;;;8.70;99.90;;;;;;5104539;28;20203;-89
2023/01/10 09:39:58;;;;;;;22.13;14.30;;;8.70;99.90;;;;;;5105500;28;20208;-86
2023/01/10 09:42:30;;;;;;;17.67;12.03;;;8.70;99.90;;;;;;5105070;28;20199;-85
2023/01/10 09:45:10;;;;;;;22.00;13.35;;;8.70;99.90;;;;;;5103523;28;20669;-85
2023/01/10 09:48:07;;;;;;;15.73;11.45;;;8.70;99.90;;;;;;5098660;28;20206;-86
2023/01/10 09:51:00;;;;;;;16.20;10.38;;;8.70;99.90;;;;;;5101435;28;20184;-84
2023/01/10 09:53:30;;;;;;;17.20;10.90;;;8.70;99.90;;;;;;5102227;28;20292;-85
2023/01/10 09:55:58;;;;;;;16.50;12.50;;;8.70;99.90;;;;;;5105519;28;20239;-86
2023/01/10 09:58:27;;;;;;;38.63;22.27;;;8.70;99.90;;;;;;5102541;28;20930;-87
2023/01/10 10:00:55;;;;;;;46.72;26.23;;;8.80;99.90;;;;;;5100776;28;20635;-87
2023/01/10 10:03:57;;;;;;;50.70;27.67;;;8.70;99.90;;;;;;5106303;28;20664;-87
2023/01/10 10:06:23;;;;;;;30.67;19.65;;;8.80;99.90;;;;;;5099651;28;20266;-85
2023/01/10 10:08:51;;;;;;;44.50;26.73;;;8.90;99.90;;;;;;5096012;28;20199;-87
2023/01/10 10:11:25;;;;;;;23.40;16.92;;;9.00;99.90;;;;;;5101519;28;20270;-85
2023/01/10 10:13:53;;;;;;;55.13;37.15;;;9.10;99.90;;;;;;5101464;28;20201;-87
2023/01/10 10:16:56;;;;;;;112.93;79.68;;;9.10;99.90;;;;;;5105308;28;20184;-88
2023/01/10 10:20:05;;;;;;;48.92;39.53;;;9.00;99.90;;;;;;5097137;28;20234;-86
2023/01/10 10:22:54;;;;;;;33.03;27.08;;;9.00;99.90;;;;;;5098909;28;20200;-86
2023/01/10 10:25:56;;;;;;;16.02;13.95;;;9.10;99.90;;;;;;5103372;28;20184;-85
2023/01/10 10:29:13;;;;;;;11.20;9.70;;;9.10;99.90;;;;;;5102423;28;20352;-87
2023/01/10 10:32:08;;;;;;;9.13;8.23;;;9.10;99.90;;;;;;5106691;28;20207;-84
2023/01/10 10:34:49;;;;;;;10.60;9.10;;;9.20;99.90;;;;;;5067066;28;20683;-85
2023/01/10 10:37:31;;;;;;;13.30;9.60;;;9.10;99.90;;;;;;5098728;28;20204;-84
2023/01/10 10:40:05;;;;;;;10.52;8.55;;;9.00;99.90;;;;;;5104487;28;20207;-87
2023/01/10 10:42:41;;;;;;;16.90;12.70;;;9.10;99.90;;;;;;5114053;28;20205;-84
2023/01/10 10:45:19;;;;;;;17.58;11.50;;;9.20;99.90;;;;;;5113265;28;20611;-84
2023/01/10 10:47:52;;;;;;;12.60;8.80;;;9.30;99.90;;;;;;5102158;28;20200;-86
2023/01/10 10:50:28;;;;;;;11.45;9.88;;;9.40;99.90;;;;;;5104140;28;20187;-84
2023/01/10 10:52:53;;;;;;;86.65;45.72;;;9.50;99.90;;;;;;5100094;28;20316;-84
2023/01/10 10:55:36;;;;;;;59.60;33.10;;;9.50;99.90;;;;;;5102003;28;20880;-86
2023/01/10 10:58:04;;;;;;;143.57;75.13;;;9.50;99.90;;;;;;5096488;28;20196;-84
2023/01/10 11:00:30;;;;;;;23.30;13.38;;;9.60;99.90;;;;;;5100765;28;20219;-84
2023/01/10 11:03:16;;;;;;;83.53;51.55;;;9.70;99.90;;;;;;5098163;28;20223;-84
2023/01/10 11:05:45;;;;;;;25.60;22.38;;;9.70;99.90;;;;;;5100806;28;20693;-84
2023/01/10 11:08:14;;;;;;;27.70;23.75;;;9.60;99.90;;;;;;5096978;28;20192;-87
2023/01/10 11:10:43;;;;;;;20.10;13.75;;;9.70;99.90;;;;;;5109542;28;20263;-87
2023/01/10 11:13:11;;;;;;;13.50;9.93;;;9.80;99.90;;;;;;5103811;28;20429;-87
2023/01/10 11:15:43;;;;;;;16.25;8.95;;;9.80;99.90;;;;;;5097672;28;20279;-82
2023/01/10 11:18:29;;;;;;;15.13;9.57;;;9.80;99.90;;;;;;5105429;28;20180;-84
2023/01/10 11:21:10;;;;;;;13.52;11.38;;;9.90;99.90;;;;;;5097442;28;20231;-84
2023/01/10 11:23:55;;;;;;;17.08;13.10;;;9.80;99.90;;;;;;5104661;28;20253;-86
2023/01/10 11:26:23;;;;;;;15.13;10.00;;;9.90;99.90;;;;;;5097798;28;20180;-85
2023/01/10 11:28:52;;;;;;;12.32;9.43;;;9.90;99.90;;;;;;5097734;28;20673;-84
2023/01/10 11:31:28;;;;;;;10.82;8.65;;;9.90;99.90;;;;;;5102728;28;20187;-84
2023/01/10 11:33:54;;;;;;;10.90;9.05;;;9.90;99.90;;;;;;5101517;28;20242;-84
2023/01/10 11:36:20;;;;;;;18.38;11.75;;;10.00;99.90;;;;;;5104818;28;20172;-86
2023/01/10 11:39:02;;;;;;;24.77;14.37;;;9.90;99.90;;;;;;5097951;28;20207;-84
2023/01/10 11:41:33;;;;;;;21.00;14.40;;;10.00;99.90;;;;;;5105676;28;20191;-84
2023/01/10 11:44:16;;;;;;;19.27;14.90;;;10.00;99.90;;;;;;5109488;28;20235;-86
2023/01/10 11:46:44;;;;;;;13.02;9.55;;;10.00;99.90;;;;;;5106237;28;20656;-84
2023/01/10 11:49:19;;;;;;;18.67;12.07;;;10.00;99.90;;;;;;5094363;28;20238;-85
2023/01/10 11:51:51;;;;;;;17.50;11.32;;;10.10;99.90;;;;;;5106301;28;20579;-84
2023/01/10 11:54:24;;;;;;;14.43;11.20;;;10.10;99.90;;;;;;5102125;28;20172;-84
2023/01/10 11:57:08;;;;;;;12.75;10.60;;;10.10;99.90;;;;;;5100910;28;20422;-84
2023/01/10 11:59:34;;;;;;;16.70;11.57;;;10.10;99.90;;;;;;5102060;28;20628;-85
2023/01/10 12:02:23;;;;;;;14.70;11.40;;;10.10;99.90;;;;;;5097795;28;20181;-86
2023/01/10 12:04:50;;;;;;;21.10;13.88;;;10.10;99.90;;;;;;5096783;28;20438;-85
2023/01/10 12:07:17;;;;;;;19.63;14.45;;;10.20;99.90;;;;;;5106925;28;20235;-84
2023/01/10 12:09:52;;;;;;;15.15;12.23;;;10.20;99.90;;;;;;5096862;28;20172;-85
2023/01/10 12:12:24;;;;;;;15.82;11.27;;;10.20;99.90;;;;;;5093351;28;20215;-85
2023/01/10 12:14:52;;;;;;;15.93;11.35;;;10.20;99.90;;;;;;5091367;28;20176;-86
2023/01/10 12:17:32;;;;;;;17.63;12.48;;;10.20;99.90;;;;;;5104337;28;20195;-86
2023/01/10 12:20:00;;;;;;;19.90;13.60;;;10.20;99.90;;;;;;5109841;28;20636;-86
2023/01/10 12:22:39;;;;;;;31.77;19.25;;;10.30;99.90;;;;;;5101669;28;20191;-84
2023/01/10 12:25:20;;;;;;;39.00;24.73;;;10.30;99.90;;;;;;5100865;28;20187;-85
2023/01/10 12:27:49;;;;;;;23.40;14.18;;;10.20;99.90;;;;;;5099845;28;20203;-86
2023/01/10 12:30:35;;;;;;;22.95;16.10;;;10.20;99.90;;;;;;5098136;28;20179;-84
2023/01/10 12:33:13;;;;;;;28.50;18.52;;;10.20;99.90;;;;;;5100825;28;20203;-86
2023/01/10 12:35:41;;;;;;;18.75;13.95;;;10.10;99.90;;;;;;5101613;28;20188;-84
2023/01/10 12:39:18;;;;;;;22.63;14.85;;;10.10;99.90;;;;;;5103830;28;20199;-86
2023/01/10 12:44:09;;;;;;;20.17;14.68;;;10.10;99.90;;;;;;5087891;28;20220;-84
2023/01/10 12:44:15;;;;;;;21.42;14.82;;;10.10;99.90;;;;;;5097239;28;20211;-86
2023/01/10 12:46:53;;;;;;;20.58;14.15;;;10.10;99.90;;;;;;5100015;28;20581;-84
2023/01/10 12:49:25;;;;;;;19.95;15.40;;;10.10;99.90;;;;;;5095773;28;20229;-85
2023/01/10 12:51:53;;;;;;;50.50;25.63;;;10.10;99.90;;;;;;5094828;28;21217;-86
2023/01/10 12:54:22;;;;;;;59.28;30.83;;;10.10;99.90;;;;;;5099341;28;20243;-84
2023/01/10 12:56:49;;;;;;;33.95;20.05;;;10.10;99.90;;;;;;5098848;28;20188;-85
2023/01/10 12:59:39;;;;;;;33.35;21.08;;;10.10;99.90;;;;;;5101252;28;20227;-83